createdAt,value
2019-03-28T00:28:11.229Z,29.63
2019-03-28T00:30:52.183Z,28.37
2019-03-28T00:33:33.079Z,25.93
2019-03-28T00:36:13.895Z,26.17
2019-03-28T00:38:54.892Z,24.37
2019-03-28T00:41:35.503Z,24.20
2019-03-28T00:44:16.398Z,27.30
2019-03-28T00:46:56.905Z,24.17
2019-03-28T00:49:37.293Z,27.70
2019-03-28T00:52:17.697Z,30.23
2019-03-28T00:54:58.648Z,31.90
2019-03-28T00:57:39.456Z,28.70
2019-03-28T01:00:20.424Z,21.30
2019-03-28T01:03:01.298Z,23.07
2019-03-28T01:05:42.327Z,24.03
2019-03-28T01:08:23.159Z,26.67
2019-03-28T01:11:03.749Z,27.90
2019-03-28T01:13:44.322Z,28.77
2019-03-28T01:16:24.875Z,30.53
2019-03-28T01:19:05.763Z,28.73
2019-03-28T01:21:46.281Z,30.97
2019-03-28T01:24:26.797Z,30.03
2019-03-28T01:27:07.401Z,24.70
2019-03-28T01:29:48.138Z,29.83
2019-03-28T01:32:29.108Z,36.97
2019-03-28T01:35:09.352Z,34.63
2019-03-28T01:37:50.203Z,32.57
2019-03-28T01:40:31.138Z,26.87
2019-03-28T01:43:11.680Z,31.43
2019-03-28T01:45:52.288Z,26.63
2019-03-28T01:48:33.387Z,26.33
2019-03-28T01:51:14.365Z,32.90
2019-03-28T01:53:55.187Z,28.50
2019-03-28T01:56:36.387Z,26.57
2019-03-28T01:59:16.878Z,30.37
2019-03-28T02:01:57.683Z,30.27
2019-03-28T02:04:38.306Z,29.50
2019-03-28T02:07:19.000Z,29.57
2019-03-28T02:09:59.373Z,26.63
2019-03-28T02:12:40.321Z,33.07
2019-03-28T02:15:20.611Z,31.00
2019-03-28T02:18:01.245Z,30.37
2019-03-28T02:20:42.159Z,27.90
2019-03-28T02:23:23.087Z,27.80
2019-03-28T02:26:03.447Z,31.17
2019-03-28T02:28:44.154Z,25.33
2019-03-28T02:31:25.059Z,24.50
2019-03-28T02:34:05.854Z,23.80
2019-03-28T02:36:46.549Z,25.37
2019-03-28T02:39:27.439Z,24.57
2019-03-28T02:42:08.420Z,28.07
2019-03-28T02:44:49.139Z,24.23
2019-03-28T02:47:30.030Z,27.70
2019-03-28T02:50:11.441Z,26.23
2019-03-28T02:52:52.475Z,31.03
2019-03-28T02:55:33.114Z,27.57
2019-03-28T02:58:13.673Z,32.53
2019-03-28T03:00:54.308Z,33.87
2019-03-28T03:03:34.923Z,25.33
2019-03-28T03:06:15.675Z,25.43
2019-03-28T03:08:56.350Z,26.27
2019-03-28T03:11:37.193Z,29.63
2019-03-28T03:14:17.859Z,26.70
2019-03-28T03:16:58.628Z,27.77
2019-03-28T03:19:39.445Z,25.80
2019-03-28T03:22:20.125Z,28.40
2019-03-28T03:25:00.809Z,29.40
2019-03-28T03:27:56.880Z,30.07
2019-03-28T03:30:23.293Z,27.53
2019-03-28T03:33:03.785Z,23.47
2019-03-28T03:35:44.536Z,27.93
2019-03-28T03:38:25.253Z,28.23
2019-03-28T03:41:06.038Z,29.10
2019-03-28T03:43:47.058Z,25.70
2019-03-28T03:46:27.895Z,29.33
2019-03-28T03:49:08.368Z,27.40
2019-03-28T03:51:48.959Z,28.40
2019-03-28T03:54:29.874Z,27.63
2019-03-28T03:57:10.399Z,27.07
2019-03-28T03:59:51.100Z,27.33
2019-03-28T04:02:32.248Z,26.53
2019-03-28T04:05:12.783Z,31.50
2019-03-28T04:07:53.329Z,32.17
2019-03-28T04:10:34.076Z,24.90
2019-03-28T04:13:14.862Z,25.83
2019-03-28T04:15:55.739Z,27.23
2019-03-28T04:18:36.513Z,26.57
2019-03-28T04:21:17.697Z,24.57
2019-03-28T04:23:58.423Z,27.93
2019-03-28T04:26:39.419Z,23.20
2019-03-28T04:29:19.957Z,28.03
2019-03-28T04:32:00.687Z,26.57
2019-03-28T04:34:41.895Z,26.83
2019-03-28T04:37:22.589Z,30.33
2019-03-28T04:40:03.129Z,24.53
2019-03-28T04:42:45.749Z,27.93
2019-03-28T04:45:26.167Z,30.73
2019-03-28T04:48:07.078Z,24.90
2019-03-28T04:50:47.452Z,28.77
2019-03-28T04:53:29.620Z,28.10
2019-03-28T04:56:10.895Z,28.17
2019-03-28T04:58:51.692Z,31.57
2019-03-28T05:01:32.552Z,29.90
2019-03-28T05:04:13.439Z,28.43
2019-03-28T05:06:54.140Z,32.57
2019-03-28T05:09:34.533Z,28.23
2019-03-28T05:12:15.070Z,27.20
2019-03-28T05:14:55.809Z,29.23
2019-03-28T05:17:36.222Z,26.80
2019-03-28T05:20:16.634Z,29.77
2019-03-28T05:22:57.444Z,26.70
2019-03-28T05:25:38.223Z,26.60
2019-03-28T05:28:18.931Z,28.27
2019-03-28T05:30:59.469Z,26.77
2019-03-28T05:33:40.378Z,24.07
2019-03-28T05:36:20.785Z,26.90
2019-03-28T05:39:01.614Z,28.80
2019-03-28T05:41:42.159Z,24.30
2019-03-28T05:44:22.866Z,24.33
2019-03-28T05:47:03.531Z,29.67
2019-03-28T05:49:44.431Z,33.57
2019-03-28T05:52:25.174Z,28.33
2019-03-28T05:55:06.136Z,26.87
2019-03-28T05:57:46.397Z,24.47
2019-03-28T06:00:27.014Z,26.67
2019-03-28T06:03:07.531Z,26.00
2019-03-28T06:05:48.255Z,30.33
2019-03-28T06:08:29.084Z,30.97
2019-03-28T06:11:09.738Z,25.27
2019-03-28T06:13:50.675Z,27.97
2019-03-28T06:16:31.308Z,27.93
2019-03-28T06:19:12.373Z,30.13
2019-03-28T06:21:52.764Z,30.43
2019-03-28T06:24:33.793Z,28.77
2019-03-28T06:27:14.677Z,29.23
2019-03-28T06:29:55.663Z,28.17
2019-03-28T06:32:42.724Z,27.63
2019-03-28T06:35:21.751Z,26.30
2019-03-28T06:38:01.614Z,26.50
2019-03-28T06:40:42.447Z,29.77
2019-03-28T06:43:23.292Z,26.97
2019-03-28T06:46:04.019Z,24.00
2019-03-28T06:48:44.937Z,27.13
2019-03-28T06:51:25.406Z,28.23
2019-03-28T06:54:06.047Z,27.67
2019-03-28T06:56:46.856Z,28.27
2019-03-28T06:59:37.256Z,28.27
2019-03-28T07:02:10.435Z,28.47
2019-03-28T07:04:51.441Z,24.20
2019-03-28T07:07:32.421Z,29.07
2019-03-28T07:10:13.187Z,28.90
2019-03-28T07:12:54.086Z,30.17
2019-03-28T07:15:36.728Z,27.53
2019-03-28T07:18:17.868Z,28.93
2019-03-28T07:20:58.643Z,28.57
2019-03-28T07:23:39.308Z,29.37
2019-03-28T07:26:19.961Z,29.37
2019-03-28T07:29:00.704Z,29.40
2019-03-28T07:31:41.394Z,30.73
2019-03-28T07:34:22.186Z,29.47
2019-03-28T07:37:02.838Z,30.73
2019-03-28T07:39:43.374Z,29.40
2019-03-28T07:42:23.773Z,34.50
2019-03-28T07:45:04.302Z,32.67
2019-03-28T07:47:45.011Z,35.47
2019-03-28T07:50:25.838Z,33.07
2019-03-28T07:53:06.558Z,36.50
2019-03-28T07:55:47.540Z,34.73
2019-03-28T07:58:28.271Z,34.93
2019-03-28T08:01:08.848Z,35.67
2019-03-28T08:03:49.415Z,34.73
2019-03-28T08:06:30.367Z,34.77
2019-03-28T08:09:11.262Z,32.13
2019-03-28T08:11:52.179Z,34.97
2019-03-28T08:14:33.084Z,34.13
2019-03-28T08:17:13.881Z,33.73
2019-03-28T08:19:54.378Z,30.50
2019-03-28T08:22:34.969Z,38.73
2019-03-28T08:25:15.387Z,38.57
2019-03-28T08:27:57.741Z,35.53
2019-03-28T08:30:38.096Z,38.10
2019-03-28T08:33:18.990Z,38.67
2019-03-28T08:35:59.921Z,38.40
2019-03-28T08:38:40.547Z,36.10
2019-03-28T08:41:21.370Z,43.57
2019-03-28T08:44:02.177Z,42.63
2019-03-28T08:46:42.928Z,35.37
2019-03-28T08:49:23.474Z,36.80
2019-03-28T08:52:03.721Z,35.60
2019-03-28T08:54:44.509Z,39.70
2019-03-28T08:57:24.990Z,40.57
2019-03-28T09:00:05.649Z,37.70
2019-03-28T09:02:44.391Z,37.50
2019-03-28T09:05:32.115Z,39.53
2019-03-28T09:08:19.822Z,36.40
2019-03-28T09:11:07.578Z,28.83
2019-03-28T09:13:55.286Z,35.07
2019-03-28T09:16:43.019Z,30.37
2019-03-28T09:19:30.797Z,29.23
2019-03-28T09:22:18.557Z,24.03
2019-03-28T09:25:06.536Z,19.20
2019-03-28T09:31:01.116Z,17.67
2019-03-28T09:33:48.821Z,23.03
2019-03-28T09:36:36.562Z,20.93
2019-03-28T09:39:25.034Z,18.17
2019-03-28T09:42:13.783Z,19.57
2019-03-28T09:45:01.469Z,21.23
2019-03-28T09:47:49.277Z,18.00
2019-03-28T09:50:36.987Z,13.80
2019-03-28T09:53:24.694Z,15.10
2019-03-28T09:56:05.749Z,14.47
2019-03-28T09:58:46.734Z,15.00
2019-03-28T10:01:27.709Z,15.63
2019-03-28T10:04:08.746Z,13.77
2019-03-28T10:06:49.642Z,12.67
2019-03-28T10:09:30.403Z,13.20
2019-03-28T10:12:11.118Z,13.20
2019-03-28T10:14:52.074Z,13.13
2019-03-28T10:17:32.613Z,15.30
2019-03-28T10:20:13.382Z,13.60
2019-03-28T10:22:54.352Z,17.67
2019-03-28T10:25:35.310Z,15.30
2019-03-28T10:28:16.147Z,13.03
2019-03-28T10:30:57.064Z,14.53
2019-03-28T10:33:38.033Z,15.73
2019-03-28T10:36:18.864Z,16.07
2019-03-28T10:39:00.017Z,11.37
2019-03-28T10:41:40.772Z,10.50
2019-03-28T10:44:21.465Z,9.63
2019-03-28T10:47:04.862Z,11.37
2019-03-28T10:49:44.876Z,11.50
2019-03-28T10:52:25.471Z,12.40
2019-03-28T10:55:06.034Z,11.00
2019-03-28T10:57:46.925Z,12.93
2019-03-28T11:00:27.746Z,8.93
2019-03-28T11:03:08.562Z,10.10
2019-03-28T11:05:49.278Z,10.03
2019-03-28T11:08:29.711Z,12.27
2019-03-28T11:11:10.326Z,10.23
2019-03-28T11:13:51.043Z,9.60
2019-03-28T11:16:31.556Z,10.53
2019-03-28T11:19:15.573Z,8.60
2019-03-28T11:21:53.064Z,12.33
2019-03-28T11:24:40.797Z,10.67
2019-03-28T11:27:28.490Z,11.07
2019-03-28T11:30:18.381Z,9.30
2019-03-28T11:33:06.553Z,10.70
2019-03-28T11:35:55.092Z,10.90
2019-03-28T11:38:42.821Z,10.50
2019-03-28T11:41:30.515Z,8.13
2019-03-28T11:44:18.320Z,15.33
2019-03-28T11:47:06.013Z,9.80
2019-03-28T11:49:53.747Z,11.50
2019-03-28T11:52:42.820Z,11.17
2019-03-28T11:55:30.926Z,10.73
2019-03-28T11:58:11.934Z,9.20
2019-03-28T12:00:52.582Z,7.10
2019-03-28T12:03:33.265Z,9.50
2019-03-28T12:06:13.713Z,8.80
2019-03-28T12:08:55.912Z,10.83
2019-03-28T12:11:36.608Z,11.20
2019-03-28T12:14:17.021Z,10.27
2019-03-28T12:16:57.618Z,11.67
2019-03-28T12:19:38.321Z,11.70
2019-03-28T12:22:18.827Z,8.57
2019-03-28T12:24:59.356Z,10.27
2019-03-28T12:27:40.151Z,11.60
2019-03-28T12:30:20.911Z,13.37
2019-03-28T12:33:01.668Z,9.90
2019-03-28T12:35:42.397Z,12.17
2019-03-28T12:38:22.901Z,12.40
2019-03-28T12:41:03.452Z,13.13
2019-03-28T12:43:43.994Z,11.70
2019-03-28T12:46:25.728Z,10.87
2019-03-28T12:49:06.403Z,10.70
2019-03-28T12:51:47.077Z,11.90
2019-03-28T12:54:28.521Z,9.53
2019-03-28T12:57:09.346Z,10.73
2019-03-28T12:59:52.178Z,31.20
2019-03-28T13:02:32.727Z,10.33
2019-03-28T13:05:13.448Z,18.43
2019-03-28T13:07:54.210Z,10.43
2019-03-28T13:10:35.448Z,13.47
2019-03-28T13:13:15.852Z,14.10
2019-03-28T13:15:56.561Z,11.23
2019-03-28T13:18:37.668Z,11.53
2019-03-28T13:21:18.469Z,11.17
2019-03-28T13:23:58.883Z,8.83
2019-03-28T13:26:39.490Z,12.47
2019-03-28T13:29:19.931Z,10.00
2019-03-28T13:32:00.269Z,11.27
2019-03-28T13:34:40.516Z,10.60
2019-03-28T13:37:21.077Z,12.20
2019-03-28T13:40:01.551Z,12.70
2019-03-28T13:42:42.263Z,11.50
2019-03-28T13:45:22.784Z,7.37
2019-03-28T13:48:03.762Z,10.47
2019-03-28T13:50:44.462Z,10.73
2019-03-28T13:53:38.286Z,11.03
2019-03-28T13:56:08.064Z,9.53
2019-03-28T13:58:48.947Z,8.13
2019-03-28T14:01:29.832Z,12.27
2019-03-28T14:04:10.597Z,10.77
2019-03-28T14:06:50.982Z,12.03
2019-03-28T14:09:31.803Z,8.03
2019-03-28T14:12:12.450Z,10.23
2019-03-28T14:14:53.332Z,10.97
2019-03-28T14:17:35.104Z,10.50
2019-03-28T14:20:16.139Z,8.73
2019-03-28T14:22:56.726Z,8.53
2019-03-28T14:25:37.296Z,10.77
2019-03-28T14:28:18.206Z,10.57
2019-03-28T14:31:00.895Z,8.73
2019-03-28T14:33:39.055Z,11.50
2019-03-28T14:36:26.752Z,12.03
2019-03-28T14:39:14.485Z,12.40
2019-03-28T14:42:02.270Z,9.90
2019-03-28T14:44:50.056Z,12.03
2019-03-28T14:47:37.761Z,13.30
2019-03-28T14:50:45.014Z,12.67
2019-03-28T14:53:32.793Z,11.13
2019-03-28T14:56:20.514Z,10.00
2019-03-28T14:59:32.888Z,14.43
2019-03-28T15:02:17.385Z,12.20
2019-03-28T15:05:05.746Z,11.53
2019-03-28T15:07:54.825Z,15.30
2019-03-28T15:10:42.626Z,14.07
2019-03-28T15:16:37.704Z,21.10
2019-03-28T15:19:26.540Z,14.20
2019-03-28T15:22:14.277Z,14.27
2019-03-28T15:25:01.972Z,12.60
2019-03-28T15:30:42.810Z,10.50
2019-03-28T15:33:39.488Z,13.00
2019-03-28T15:36:23.001Z,9.53
2019-03-28T15:39:09.444Z,10.70
2019-03-28T15:41:57.241Z,12.37
2019-03-28T15:44:44.980Z,15.07
2019-03-28T15:47:32.822Z,12.30
2019-03-28T15:50:20.555Z,14.70
2019-03-28T15:53:08.289Z,10.17
2019-03-28T15:55:56.076Z,18.37
2019-03-28T15:58:37.045Z,12.90
2019-03-28T16:01:17.641Z,11.77
2019-03-28T16:03:58.539Z,11.83
2019-03-28T16:06:39.344Z,11.80
2019-03-28T16:09:20.322Z,13.70
2019-03-28T16:12:02.861Z,12.90
2019-03-28T16:14:48.675Z,13.67
2019-03-28T16:17:36.375Z,11.87
2019-03-28T16:20:24.143Z,12.90
2019-03-28T16:23:11.867Z,14.03
2019-03-28T16:25:59.640Z,13.17
2019-03-28T16:28:47.466Z,15.77
2019-03-28T16:34:43.561Z,12.10
2019-03-28T16:37:31.520Z,14.73
2019-03-28T16:40:19.312Z,10.30
2019-03-28T16:43:07.508Z,14.03
2019-03-28T16:45:56.486Z,13.60
2019-03-28T16:48:44.240Z,21.20
2019-03-28T16:51:31.975Z,14.83
2019-03-28T16:54:19.756Z,14.17
2019-03-28T16:57:00.269Z,13.47
2019-03-28T16:59:41.306Z,13.27
2019-03-28T17:02:22.046Z,12.10
2019-03-28T17:05:02.852Z,14.73
2019-03-28T17:07:43.650Z,12.03
2019-03-28T17:10:24.286Z,11.17
2019-03-28T17:13:05.379Z,12.00
2019-03-28T17:15:46.097Z,12.67
2019-03-28T17:18:24.921Z,12.00
2019-03-28T17:21:13.728Z,12.23
2019-03-28T17:24:02.089Z,14.13
2019-03-28T17:26:49.818Z,13.37
2019-03-28T17:29:37.530Z,12.90
2019-03-28T17:32:25.276Z,14.97
2019-03-28T17:35:13.154Z,12.87
2019-03-28T17:38:02.486Z,11.33
2019-03-28T17:40:50.276Z,14.23
2019-03-28T17:43:38.001Z,11.43
2019-03-28T17:46:25.752Z,10.60
2019-03-28T17:49:13.496Z,11.63
2019-03-28T17:52:01.774Z,15.93
2019-03-28T17:54:50.650Z,12.27
2019-03-28T17:57:31.502Z,10.50
2019-03-28T18:00:12.940Z,11.17
2019-03-28T18:02:51.706Z,11.53
2019-03-28T18:05:40.747Z,13.27
2019-03-28T18:08:28.873Z,16.43
2019-03-28T18:11:16.556Z,13.37
2019-03-28T18:14:04.584Z,13.17
2019-03-28T18:16:52.384Z,16.27
2019-03-28T18:19:40.081Z,12.33
2019-03-28T18:22:27.819Z,15.30
2019-03-28T18:28:22.319Z,20.13
2019-03-28T18:34:16.900Z,16.17
2019-03-28T18:37:04.618Z,22.53
2019-03-28T18:39:52.364Z,26.27
2019-03-28T18:42:40.103Z,41.00
2019-03-28T18:45:27.899Z,39.00
2019-03-28T18:48:27.374Z,16.87
2019-03-28T18:51:05.091Z,12.70
2019-03-28T18:53:52.854Z,15.30
2019-03-28T18:56:40.627Z,12.33
2019-03-28T18:59:21.765Z,14.83
2019-03-28T19:02:02.689Z,14.37
2019-03-28T19:04:43.295Z,12.97
2019-03-28T19:07:23.780Z,13.37
2019-03-28T19:10:04.308Z,11.50
2019-03-28T19:12:44.979Z,12.57
2019-03-28T19:15:25.569Z,12.53
2019-03-28T19:18:06.402Z,13.47
2019-03-28T19:20:47.139Z,12.13
2019-03-28T19:23:27.587Z,11.67
2019-03-28T19:26:11.001Z,11.93
2019-03-28T19:28:52.055Z,15.47
2019-03-28T19:31:32.990Z,13.63
2019-03-28T19:34:13.390Z,13.30
2019-03-28T19:36:53.751Z,11.43
2019-03-28T19:39:34.068Z,13.40
2019-03-28T19:42:14.893Z,16.03
2019-03-28T19:44:55.663Z,15.07
2019-03-28T19:47:36.214Z,13.60
2019-03-28T19:50:16.654Z,32.90
2019-03-28T19:52:57.024Z,32.40
2019-03-28T19:55:39.925Z,29.93
2019-03-28T19:58:19.983Z,14.63
2019-03-28T20:01:00.622Z,13.60
2019-03-28T20:03:41.243Z,16.47
2019-03-28T20:06:22.684Z,12.70
2019-03-28T20:09:15.614Z,10.07
2019-03-28T20:11:46.805Z,13.37
2019-03-28T20:14:27.639Z,15.57
2019-03-28T20:17:08.175Z,14.87
2019-03-28T20:19:48.814Z,14.40
2019-03-28T20:22:30.194Z,14.93
2019-03-28T20:25:11.395Z,15.80
2019-03-28T20:27:52.134Z,16.00
2019-03-28T20:30:32.900Z,15.47
2019-03-28T20:33:13.660Z,16.40
2019-03-28T20:36:06.273Z,13.60
2019-03-28T20:38:36.609Z,12.87
2019-03-28T20:41:17.458Z,13.57
2019-03-28T20:43:57.935Z,16.50
2019-03-28T20:46:40.824Z,18.00
2019-03-28T20:49:21.298Z,17.73
2019-03-28T20:52:01.663Z,19.87
2019-03-28T20:54:42.514Z,18.47
2019-03-28T20:57:22.989Z,20.37
2019-03-28T21:00:03.587Z,19.67
2019-03-28T21:02:44.328Z,18.87
2019-03-28T21:05:24.977Z,18.00
2019-03-28T21:08:05.553Z,13.37
2019-03-28T21:10:45.838Z,15.23
2019-03-28T21:13:29.815Z,17.73
2019-03-28T21:16:08.807Z,16.23
2019-03-28T21:18:49.714Z,14.63
2019-03-28T21:21:30.460Z,14.57
2019-03-28T21:24:11.385Z,20.70
2019-03-28T21:26:52.388Z,17.67
2019-03-28T21:29:34.067Z,18.60
2019-03-28T21:32:14.660Z,18.83
2019-03-28T21:34:56.562Z,16.00
2019-03-28T21:37:37.239Z,17.63
2019-03-28T21:40:18.078Z,18.53
2019-03-28T21:42:58.962Z,16.20
2019-03-28T21:45:40.730Z,14.60
2019-03-28T21:48:21.579Z,18.07
2019-03-28T21:51:01.961Z,16.13
2019-03-28T21:53:42.778Z,17.10
2019-03-28T21:56:24.194Z,14.67
2019-03-28T21:59:05.637Z,12.17
2019-03-28T22:01:46.165Z,12.73
2019-03-28T22:04:26.828Z,10.67
2019-03-28T22:07:07.495Z,13.17
2019-03-28T22:09:48.062Z,12.27
2019-03-28T22:12:29.889Z,13.67
2019-03-28T22:15:11.158Z,11.03
2019-03-28T22:17:51.914Z,14.57
2019-03-28T22:20:32.875Z,17.37
2019-03-28T22:23:13.885Z,12.63
2019-03-28T22:25:54.312Z,11.53
2019-03-28T22:28:37.700Z,13.17
2019-03-28T22:31:17.538Z,12.27
2019-03-28T22:33:58.002Z,12.10
2019-03-28T22:36:38.456Z,13.57
2019-03-28T22:39:19.365Z,12.17
2019-03-28T22:42:00.250Z,15.43
2019-03-28T22:44:41.094Z,16.37
2019-03-28T22:47:22.041Z,17.00
2019-03-28T22:50:02.739Z,13.00
2019-03-28T22:52:43.604Z,13.37
2019-03-28T22:55:24.007Z,14.40
2019-03-28T22:58:04.793Z,12.17
2019-03-28T23:00:46.314Z,13.50
2019-03-28T23:03:27.434Z,13.13
2019-03-28T23:06:08.083Z,13.37
2019-03-28T23:08:48.744Z,11.33
2019-03-28T23:11:29.104Z,14.67
2019-03-28T23:14:09.717Z,15.80
2019-03-28T23:16:50.277Z,13.37
2019-03-28T23:19:31.977Z,15.33
2019-03-28T23:22:12.606Z,15.47
2019-03-28T23:24:53.049Z,13.07
2019-03-28T23:27:33.788Z,12.83
2019-03-28T23:30:14.575Z,11.53
2019-03-28T23:32:55.078Z,10.07
2019-03-28T23:35:35.492Z,12.30
2019-03-28T23:38:16.184Z,11.13
2019-03-28T23:40:57.139Z,14.20
2019-03-28T23:43:37.969Z,13.43
2019-03-28T23:46:18.722Z,11.33
2019-03-28T23:48:59.712Z,12.40
2019-03-28T23:51:40.483Z,15.00
2019-03-28T23:54:20.924Z,15.37
2019-03-28T23:57:01.526Z,13.63
2019-03-28T23:59:42.144Z,17.77
